sensor_id;sensor_type;location;lat;lon;timestamp;P1;durP1;ratioP1;P2;durP2;ratioP2
8626;SDS011;4351;51.422;6.794;2023-03-01T00:01:17;11.53;;;7.97;;
8626;SDS011;4351;51.422;6.794;2023-03-01T00:03:46;11.07;;;7.80;;
8626;SDS011;4351;51.422;6.794;2023-03-01T00:06:14;10.93;;;7.70;;
8626;SDS011;4351;51.422;6.794;2023-03-01T00:08:42;10.63;;;7.60;;
8626;SDS011;4351;51.422;6.794;2023-03-01T00:11:12;13.37;;;8.43;;
8626;SDS011;4351;51.422;6.794;2023-03-01T00:13:43;12.37;;;8.33;;
8626;SDS011;4351;51.422;6.794;2023-03-01T00:16:12;12.40;;;8.23;;
8626;SDS011;4351;51.422;6.794;2023-03-01T00:18:42;12.33;;;8.20;;
8626;SDS011;4351;51.422;6.794;2023-03-01T00:21:10;9.40;;;7.60;;
8626;SDS011;4351;51.422;6.794;2023-03-01T00:23:38;10.73;;;7.60;;
8626;SDS011;4351;51.422;6.794;2023-03-01T00:26:07;11.37;;;8.20;;
8626;SDS011;4351;51.422;6.794;2023-03-01T00:28:40;14.07;;;8.57;;
8626;SDS011;4351;51.422;6.794;2023-03-01T00:31:09;12.30;;;8.67;;
8626;SDS011;4351;51.422;6.794;2023-03-01T00:33:38;11.10;;;7.80;;
8626;SDS011;4351;51.422;6.794;2023-03-01T00:36:07;11.63;;;8.10;;
8626;SDS011;4351;51.422;6.794;2023-03-01T00:38:36;16.53;;;8.30;;
8626;SDS011;4351;51.422;6.794;2023-03-01T00:41:06;9.33;;;7.70;;
8626;SDS011;4351;51.422;6.794;2023-03-01T00:43:36;11.07;;;8.30;;
8626;SDS011;4351;51.422;6.794;2023-03-01T00:46:06;11.37;;;8.33;;
8626;SDS011;4351;51.422;6.794;2023-03-01T00:48:36;12.90;;;7.97;;
8626;SDS011;4351;51.422;6.794;2023-03-01T00:51:05;13.10;;;8.10;;
8626;SDS011;4351;51.422;6.794;2023-03-01T00:53:34;14.07;;;8.90;;
8626;SDS011;4351;51.422;6.794;2023-03-01T00:56:03;13.27;;;7.73;;
8626;SDS011;4351;51.422;6.794;2023-03-01T00:58:32;11.77;;;8.40;;
8626;SDS011;4351;51.422;6.794;2023-03-01T01:01:00;12.80;;;8.47;;
8626;SDS011;4351;51.422;6.794;2023-03-01T01:03:30;12.77;;;8.70;;
8626;SDS011;4351;51.422;6.794;2023-03-01T01:05:57;15.17;;;8.23;;
8626;SDS011;4351;51.422;6.794;2023-03-01T01:08:31;13.40;;;8.63;;
8626;SDS011;4351;51.422;6.794;2023-03-01T01:10:59;13.67;;;8.73;;
8626;SDS011;4351;51.422;6.794;2023-03-01T01:13:26;12.00;;;8.80;;
8626;SDS011;4351;51.422;6.794;2023-03-01T01:15:54;14.57;;;8.87;;
8626;SDS011;4351;51.422;6.794;2023-03-01T01:18:27;11.90;;;8.33;;
8626;SDS011;4351;51.422;6.794;2023-03-01T01:20:57;12.27;;;8.40;;
8626;SDS011;4351;51.422;6.794;2023-03-01T01:23:25;11.83;;;8.67;;
8626;SDS011;4351;51.422;6.794;2023-03-01T01:25:53;11.37;;;7.57;;
8626;SDS011;4351;51.422;6.794;2023-03-01T01:28:21;11.93;;;7.70;;
8626;SDS011;4351;51.422;6.794;2023-03-01T01:30:49;13.83;;;8.87;;
8626;SDS011;4351;51.422;6.794;2023-03-01T01:33:17;13.50;;;8.50;;
8626;SDS011;4351;51.422;6.794;2023-03-01T01:35:45;16.33;;;9.10;;
8626;SDS011;4351;51.422;6.794;2023-03-01T01:38:14;13.70;;;8.70;;
8626;SDS011;4351;51.422;6.794;2023-03-01T01:40:43;13.03;;;8.57;;
8626;SDS011;4351;51.422;6.794;2023-03-01T01:43:13;11.33;;;8.73;;
8626;SDS011;4351;51.422;6.794;2023-03-01T01:45:47;15.27;;;8.47;;
8626;SDS011;4351;51.422;6.794;2023-03-01T01:48:16;16.03;;;9.40;;
8626;SDS011;4351;51.422;6.794;2023-03-01T01:50:50;13.67;;;9.23;;
8626;SDS011;4351;51.422;6.794;2023-03-01T01:53:24;13.40;;;8.80;;
8626;SDS011;4351;51.422;6.794;2023-03-01T01:55:53;13.30;;;8.87;;
8626;SDS011;4351;51.422;6.794;2023-03-01T01:58:25;11.93;;;8.73;;
8626;SDS011;4351;51.422;6.794;2023-03-01T02:00:57;15.93;;;9.30;;
8626;SDS011;4351;51.422;6.794;2023-03-01T02:03:27;12.17;;;8.40;;
8626;SDS011;4351;51.422;6.794;2023-03-01T02:06:05;14.37;;;9.17;;
8626;SDS011;4351;51.422;6.794;2023-03-01T02:08:40;14.27;;;9.10;;
8626;SDS011;4351;51.422;6.794;2023-03-01T02:11:10;13.43;;;8.90;;
8626;SDS011;4351;51.422;6.794;2023-03-01T02:13:41;16.10;;;9.30;;
8626;SDS011;4351;51.422;6.794;2023-03-01T02:16:11;15.00;;;9.07;;
8626;SDS011;4351;51.422;6.794;2023-03-01T02:18:41;15.33;;;9.10;;
8626;SDS011;4351;51.422;6.794;2023-03-01T02:21:24;15.30;;;8.97;;
8626;SDS011;4351;51.422;6.794;2023-03-01T02:24:04;16.50;;;9.40;;
8626;SDS011;4351;51.422;6.794;2023-03-01T02:26:40;14.93;;;8.73;;
8626;SDS011;4351;51.422;6.794;2023-03-01T02:29:13;15.50;;;9.60;;
8626;SDS011;4351;51.422;6.794;2023-03-01T02:31:41;16.47;;;9.10;;
8626;SDS011;4351;51.422;6.794;2023-03-01T02:34:12;14.50;;;9.67;;
8626;SDS011;4351;51.422;6.794;2023-03-01T02:36:43;14.43;;;8.90;;
8626;SDS011;4351;51.422;6.794;2023-03-01T02:39:15;14.17;;;9.67;;
8626;SDS011;4351;51.422;6.794;2023-03-01T02:41:48;13.60;;;8.93;;
8626;SDS011;4351;51.422;6.794;2023-03-01T02:44:20;13.70;;;9.30;;
8626;SDS011;4351;51.422;6.794;2023-03-01T02:46:50;14.47;;;9.43;;
8626;SDS011;4351;51.422;6.794;2023-03-01T02:49:22;13.57;;;9.30;;
8626;SDS011;4351;51.422;6.794;2023-03-01T02:51:54;17.83;;;8.43;;
8626;SDS011;4351;51.422;6.794;2023-03-01T02:54:33;14.07;;;9.57;;
8626;SDS011;4351;51.422;6.794;2023-03-01T02:57:07;15.43;;;10.00;;
8626;SDS011;4351;51.422;6.794;2023-03-01T02:59:37;13.30;;;9.63;;
8626;SDS011;4351;51.422;6.794;2023-03-01T03:02:07;12.70;;;9.00;;
8626;SDS011;4351;51.422;6.794;2023-03-01T03:04:46;15.57;;;9.40;;
8626;SDS011;4351;51.422;6.794;2023-03-01T03:07:14;15.23;;;9.20;;
8626;SDS011;4351;51.422;6.794;2023-03-01T03:09:43;15.47;;;10.27;;
8626;SDS011;4351;51.422;6.794;2023-03-01T03:12:11;12.97;;;9.27;;
8626;SDS011;4351;51.422;6.794;2023-03-01T03:14:41;16.23;;;9.70;;
8626;SDS011;4351;51.422;6.794;2023-03-01T03:17:08;12.83;;;8.93;;
8626;SDS011;4351;51.422;6.794;2023-03-01T03:19:36;16.53;;;9.77;;
8626;SDS011;4351;51.422;6.794;2023-03-01T03:22:04;15.67;;;9.53;;
8626;SDS011;4351;51.422;6.794;2023-03-01T03:24:32;15.00;;;9.30;;
8626;SDS011;4351;51.422;6.794;2023-03-01T03:27:04;15.03;;;9.60;;
8626;SDS011;4351;51.422;6.794;2023-03-01T03:29:32;14.27;;;9.40;;
8626;SDS011;4351;51.422;6.794;2023-03-01T03:32:02;17.87;;;9.33;;
8626;SDS011;4351;51.422;6.794;2023-03-01T03:34:30;14.37;;;9.20;;
8626;SDS011;4351;51.422;6.794;2023-03-01T03:36:58;14.83;;;9.30;;
8626;SDS011;4351;51.422;6.794;2023-03-01T03:39:27;14.13;;;9.97;;
8626;SDS011;4351;51.422;6.794;2023-03-01T03:42:01;12.87;;;9.80;;
8626;SDS011;4351;51.422;6.794;2023-03-01T03:44:29;14.70;;;10.03;;
8626;SDS011;4351;51.422;6.794;2023-03-01T03:46:56;14.17;;;9.43;;
8626;SDS011;4351;51.422;6.794;2023-03-01T03:49:26;13.20;;;9.20;;
8626;SDS011;4351;51.422;6.794;2023-03-01T03:51:53;13.90;;;9.63;;
8626;SDS011;4351;51.422;6.794;2023-03-01T03:54:21;13.40;;;9.43;;
8626;SDS011;4351;51.422;6.794;2023-03-01T03:56:49;13.00;;;9.70;;
8626;SDS011;4351;51.422;6.794;2023-03-01T03:59:17;13.07;;;9.73;;
8626;SDS011;4351;51.422;6.794;2023-03-01T04:01:45;14.30;;;11.53;;
8626;SDS011;4351;51.422;6.794;2023-03-01T04:04:12;11.87;;;8.87;;
8626;SDS011;4351;51.422;6.794;2023-03-01T04:06:45;14.97;;;9.47;;
8626;SDS011;4351;51.422;6.794;2023-03-01T04:09:15;13.43;;;10.13;;
8626;SDS011;4351;51.422;6.794;2023-03-01T04:11:42;14.53;;;9.47;;
8626;SDS011;4351;51.422;6.794;2023-03-01T04:14:10;12.33;;;9.80;;
8626;SDS011;4351;51.422;6.794;2023-03-01T04:16:38;14.40;;;9.17;;
8626;SDS011;4351;51.422;6.794;2023-03-01T04:19:06;17.00;;;10.27;;
8626;SDS011;4351;51.422;6.794;2023-03-01T04:21:35;14.03;;;9.73;;
8626;SDS011;4351;51.422;6.794;2023-03-01T04:24:05;12.73;;;9.30;;
8626;SDS011;4351;51.422;6.794;2023-03-01T04:26:33;14.03;;;9.23;;
8626;SDS011;4351;51.422;6.794;2023-03-01T04:29:01;15.23;;;10.40;;
8626;SDS011;4351;51.422;6.794;2023-03-01T04:31:29;13.30;;;9.57;;
8626;SDS011;4351;51.422;6.794;2023-03-01T04:34:00;13.13;;;9.53;;
8626;SDS011;4351;51.422;6.794;2023-03-01T04:36:28;12.97;;;9.40;;
8626;SDS011;4351;51.422;6.794;2023-03-01T04:38:57;18.07;;;10.20;;
8626;SDS011;4351;51.422;6.794;2023-03-01T04:41:27;14.70;;;9.77;;
8626;SDS011;4351;51.422;6.794;2023-03-01T04:43:55;13.53;;;9.57;;
8626;SDS011;4351;51.422;6.794;2023-03-01T04:46:23;14.03;;;10.00;;
8626;SDS011;4351;51.422;6.794;2023-03-01T04:48:51;14.70;;;9.50;;
8626;SDS011;4351;51.422;6.794;2023-03-01T04:51:19;15.93;;;10.13;;
8626;SDS011;4351;51.422;6.794;2023-03-01T04:53:47;13.57;;;9.90;;
8626;SDS011;4351;51.422;6.794;2023-03-01T04:56:15;14.60;;;9.60;;
8626;SDS011;4351;51.422;6.794;2023-03-01T04:58:46;12.83;;;9.83;;
8626;SDS011;4351;51.422;6.794;2023-03-01T05:01:15;12.77;;;9.60;;
8626;SDS011;4351;51.422;6.794;2023-03-01T05:03:45;14.17;;;9.67;;
8626;SDS011;4351;51.422;6.794;2023-03-01T05:06:13;12.07;;;9.10;;
8626;SDS011;4351;51.422;6.794;2023-03-01T05:08:42;16.37;;;10.03;;
8626;SDS011;4351;51.422;6.794;2023-03-01T05:11:11;16.40;;;9.47;;
8626;SDS011;4351;51.422;6.794;2023-03-01T05:13:39;15.93;;;9.17;;
8626;SDS011;4351;51.422;6.794;2023-03-01T05:16:09;16.03;;;9.73;;
8626;SDS011;4351;51.422;6.794;2023-03-01T05:18:39;15.53;;;10.37;;
8626;SDS011;4351;51.422;6.794;2023-03-01T05:21:08;14.53;;;10.07;;
8626;SDS011;4351;51.422;6.794;2023-03-01T05:23:38;15.97;;;10.20;;
8626;SDS011;4351;51.422;6.794;2023-03-01T05:26:07;15.97;;;9.83;;
8626;SDS011;4351;51.422;6.794;2023-03-01T05:28:52;14.77;;;10.07;;
8626;SDS011;4351;51.422;6.794;2023-03-01T05:31:27;14.63;;;9.80;;
8626;SDS011;4351;51.422;6.794;2023-03-01T05:33:57;14.93;;;10.30;;
8626;SDS011;4351;51.422;6.794;2023-03-01T05:36:24;14.93;;;9.27;;
8626;SDS011;4351;51.422;6.794;2023-03-01T05:38:53;13.67;;;9.77;;
8626;SDS011;4351;51.422;6.794;2023-03-01T05:41:21;17.50;;;10.93;;
8626;SDS011;4351;51.422;6.794;2023-03-01T05:43:48;15.33;;;10.27;;
8626;SDS011;4351;51.422;6.794;2023-03-01T05:46:16;14.87;;;10.13;;
8626;SDS011;4351;51.422;6.794;2023-03-01T05:48:46;15.23;;;10.13;;
8626;SDS011;4351;51.422;6.794;2023-03-01T05:51:14;16.23;;;10.73;;
8626;SDS011;4351;51.422;6.794;2023-03-01T05:53:42;13.07;;;9.20;;
8626;SDS011;4351;51.422;6.794;2023-03-01T05:56:10;16.60;;;10.20;;
8626;SDS011;4351;51.422;6.794;2023-03-01T05:58:38;16.53;;;10.77;;
8626;SDS011;4351;51.422;6.794;2023-03-01T06:01:10;19.43;;;10.67;;
8626;SDS011;4351;51.422;6.794;2023-03-01T06:03:39;15.93;;;10.47;;
8626;SDS011;4351;51.422;6.794;2023-03-01T06:06:08;18.13;;;10.90;;
8626;SDS011;4351;51.422;6.794;2023-03-01T06:08:36;13.87;;;9.47;;
8626;SDS011;4351;51.422;6.794;2023-03-01T06:11:04;13.70;;;9.97;;
8626;SDS011;4351;51.422;6.794;2023-03-01T06:13:33;17.27;;;10.37;;
8626;SDS011;4351;51.422;6.794;2023-03-01T06:16:03;15.63;;;9.67;;
8626;SDS011;4351;51.422;6.794;2023-03-01T06:18:32;16.83;;;9.80;;
8626;SDS011;4351;51.422;6.794;2023-03-01T06:21:00;15.73;;;9.97;;
8626;SDS011;4351;51.422;6.794;2023-03-01T06:23:29;16.27;;;10.93;;
8626;SDS011;4351;51.422;6.794;2023-03-01T06:25:58;17.07;;;10.80;;
8626;SDS011;4351;51.422;6.794;2023-03-01T06:28:26;14.87;;;10.03;;
8626;SDS011;4351;51.422;6.794;2023-03-01T06:30:54;18.90;;;10.60;;
8626;SDS011;4351;51.422;6.794;2023-03-01T06:33:21;15.33;;;10.13;;
8626;SDS011;4351;51.422;6.794;2023-03-01T06:35:50;16.73;;;10.00;;
8626;SDS011;4351;51.422;6.794;2023-03-01T06:38:18;18.93;;;10.60;;
8626;SDS011;4351;51.422;6.794;2023-03-01T06:40:52;15.33;;;9.47;;
8626;SDS011;4351;51.422;6.794;2023-03-01T06:43:21;15.80;;;9.97;;
8626;SDS011;4351;51.422;6.794;2023-03-01T06:45:49;15.30;;;10.00;;
8626;SDS011;4351;51.422;6.794;2023-03-01T06:48:17;17.33;;;11.10;;
8626;SDS011;4351;51.422;6.794;2023-03-01T06:50:45;19.43;;;11.50;;
8626;SDS011;4351;51.422;6.794;2023-03-01T06:53:13;18.77;;;12.57;;
8626;SDS011;4351;51.422;6.794;2023-03-01T06:55:41;15.83;;;10.37;;
8626;SDS011;4351;51.422;6.794;2023-03-01T06:58:10;15.80;;;9.83;;
8626;SDS011;4351;51.422;6.794;2023-03-01T07:00:38;16.50;;;10.67;;
8626;SDS011;4351;51.422;6.794;2023-03-01T07:03:07;16.07;;;10.40;;
8626;SDS011;4351;51.422;6.794;2023-03-01T07:05:36;12.63;;;9.50;;
8626;SDS011;4351;51.422;6.794;2023-03-01T07:08:03;13.30;;;9.50;;
8626;SDS011;4351;51.422;6.794;2023-03-01T07:10:31;22.17;;;12.37;;
8626;SDS011;4351;51.422;6.794;2023-03-01T07:12:59;16.37;;;10.50;;
8626;SDS011;4351;51.422;6.794;2023-03-01T07:15:28;15.67;;;10.23;;
8626;SDS011;4351;51.422;6.794;2023-03-01T07:17:56;16.37;;;10.47;;
8626;SDS011;4351;51.422;6.794;2023-03-01T07:20:24;18.33;;;10.30;;
8626;SDS011;4351;51.422;6.794;2023-03-01T07:22:53;14.70;;;9.43;;
8626;SDS011;4351;51.422;6.794;2023-03-01T07:25:21;18.43;;;10.07;;
8626;SDS011;4351;51.422;6.794;2023-03-01T07:27:50;15.27;;;9.80;;
8626;SDS011;4351;51.422;6.794;2023-03-01T07:30:19;15.43;;;10.20;;
8626;SDS011;4351;51.422;6.794;2023-03-01T07:32:49;19.03;;;9.80;;
8626;SDS011;4351;51.422;6.794;2023-03-01T07:35:21;17.13;;;9.93;;
8626;SDS011;4351;51.422;6.794;2023-03-01T07:37:49;15.43;;;10.23;;
8626;SDS011;4351;51.422;6.794;2023-03-01T07:40:17;16.97;;;10.20;;
8626;SDS011;4351;51.422;6.794;2023-03-01T07:42:45;17.03;;;9.67;;
8626;SDS011;4351;51.422;6.794;2023-03-01T07:45:13;16.10;;;9.50;;
8626;SDS011;4351;51.422;6.794;2023-03-01T07:47:41;14.10;;;9.50;;
8626;SDS011;4351;51.422;6.794;2023-03-01T07:50:10;15.17;;;11.37;;
8626;SDS011;4351;51.422;6.794;2023-03-01T07:52:39;18.90;;;10.83;;
8626;SDS011;4351;51.422;6.794;2023-03-01T07:55:07;17.00;;;10.37;;
8626;SDS011;4351;51.422;6.794;2023-03-01T07:57:35;14.60;;;10.33;;
8626;SDS011;4351;51.422;6.794;2023-03-01T08:00:03;15.07;;;10.67;;
8626;SDS011;4351;51.422;6.794;2023-03-01T08:02:37;16.70;;;10.70;;
8626;SDS011;4351;51.422;6.794;2023-03-01T08:05:07;18.00;;;11.00;;
8626;SDS011;4351;51.422;6.794;2023-03-01T08:07:36;20.67;;;10.90;;
8626;SDS011;4351;51.422;6.794;2023-03-01T08:10:05;14.97;;;10.80;;
8626;SDS011;4351;51.422;6.794;2023-03-01T08:12:34;18.57;;;10.97;;
8626;SDS011;4351;51.422;6.794;2023-03-01T08:15:02;15.47;;;10.47;;
8626;SDS011;4351;51.422;6.794;2023-03-01T08:17:30;17.33;;;11.17;;
8626;SDS011;4351;51.422;6.794;2023-03-01T08:19:58;18.10;;;11.40;;
8626;SDS011;4351;51.422;6.794;2023-03-01T08:22:26;18.17;;;12.00;;
8626;SDS011;4351;51.422;6.794;2023-03-01T08:24:55;17.87;;;11.70;;
8626;SDS011;4351;51.422;6.794;2023-03-01T08:27:23;15.50;;;10.20;;
8626;SDS011;4351;51.422;6.794;2023-03-01T08:29:51;17.87;;;10.87;;
8626;SDS011;4351;51.422;6.794;2023-03-01T08:32:19;15.40;;;10.40;;
8626;SDS011;4351;51.422;6.794;2023-03-01T08:34:47;16.10;;;10.27;;
8626;SDS011;4351;51.422;6.794;2023-03-01T08:37:15;17.53;;;10.70;;
8626;SDS011;4351;51.422;6.794;2023-03-01T08:39:43;16.60;;;11.47;;
8626;SDS011;4351;51.422;6.794;2023-03-01T08:42:12;16.77;;;10.30;;
8626;SDS011;4351;51.422;6.794;2023-03-01T08:44:40;14.80;;;10.37;;
8626;SDS011;4351;51.422;6.794;2023-03-01T08:47:11;15.10;;;10.33;;
8626;SDS011;4351;51.422;6.794;2023-03-01T08:49:39;12.73;;;9.67;;
8626;SDS011;4351;51.422;6.794;2023-03-01T08:52:06;13.57;;;9.47;;
8626;SDS011;4351;51.422;6.794;2023-03-01T08:54:34;15.33;;;9.70;;
8626;SDS011;4351;51.422;6.794;2023-03-01T08:57:02;14.27;;;9.93;;
8626;SDS011;4351;51.422;6.794;2023-03-01T08:59:32;14.23;;;9.47;;
8626;SDS011;4351;51.422;6.794;2023-03-01T09:02:03;16.17;;;10.00;;
8626;SDS011;4351;51.422;6.794;2023-03-01T09:04:31;16.47;;;10.80;;
8626;SDS011;4351;51.422;6.794;2023-03-01T09:06:59;14.23;;;9.73;;
8626;SDS011;4351;51.422;6.794;2023-03-01T09:09:27;15.67;;;10.27;;
8626;SDS011;4351;51.422;6.794;2023-03-01T09:11:55;12.53;;;9.83;;
8626;SDS011;4351;51.422;6.794;2023-03-01T09:14:23;17.80;;;10.20;;
8626;SDS011;4351;51.422;6.794;2023-03-01T09:16:52;12.33;;;9.43;;
8626;SDS011;4351;51.422;6.794;2023-03-01T09:19:20;16.23;;;9.30;;
8626;SDS011;4351;51.422;6.794;2023-03-01T09:21:50;15.53;;;9.67;;
8626;SDS011;4351;51.422;6.794;2023-03-01T09:24:19;15.77;;;9.87;;
8626;SDS011;4351;51.422;6.794;2023-03-01T09:26:48;14.53;;;9.87;;
8626;SDS011;4351;51.422;6.794;2023-03-01T09:29:17;14.47;;;9.73;;
8626;SDS011;4351;51.422;6.794;2023-03-01T09:31:45;13.33;;;9.47;;
8626;SDS011;4351;51.422;6.794;2023-03-01T09:34:14;15.67;;;9.30;;
8626;SDS011;4351;51.422;6.794;2023-03-01T09:36:42;16.27;;;9.43;;
8626;SDS011;4351;51.422;6.794;2023-03-01T09:39:10;16.23;;;9.60;;
8626;SDS011;4351;51.422;6.794;2023-03-01T09:41:43;14.80;;;9.43;;
8626;SDS011;4351;51.422;6.794;2023-03-01T09:44:18;14.87;;;9.90;;
8626;SDS011;4351;51.422;6.794;2023-03-01T09:46:51;17.97;;;10.20;;
8626;SDS011;4351;51.422;6.794;2023-03-01T09:49:21;16.20;;;9.63;;
8626;SDS011;4351;51.422;6.794;2023-03-01T09:51:56;13.43;;;9.63;;
8626;SDS011;4351;51.422;6.794;2023-03-01T09:54:27;13.03;;;9.53;;
8626;SDS011;4351;51.422;6.794;2023-03-01T09:57:06;16.40;;;9.67;;
8626;SDS011;4351;51.422;6.794;2023-03-01T09:59:51;14.93;;;9.57;;
8626;SDS011;4351;51.422;6.794;2023-03-01T10:02:32;14.97;;;8.77;;
8626;SDS011;4351;51.422;6.794;2023-03-01T10:05:12;16.00;;;9.77;;
8626;SDS011;4351;51.422;6.794;2023-03-01T10:07:59;18.27;;;10.30;;
8626;SDS011;4351;51.422;6.794;2023-03-01T10:10:43;12.80;;;9.30;;
8626;SDS011;4351;51.422;6.794;2023-03-01T10:13:15;15.37;;;9.30;;
8626;SDS011;4351;51.422;6.794;2023-03-01T10:15:47;13.87;;;8.73;;
8626;SDS011;4351;51.422;6.794;2023-03-01T10:18:22;12.50;;;8.43;;
8626;SDS011;4351;51.422;6.794;2023-03-01T10:20:57;12.97;;;8.37;;
8626;SDS011;4351;51.422;6.794;2023-03-01T10:23:27;12.83;;;8.20;;
8626;SDS011;4351;51.422;6.794;2023-03-01T10:26:11;13.77;;;8.67;;
8626;SDS011;4351;51.422;6.794;2023-03-01T10:28:50;11.33;;;7.73;;
8626;SDS011;4351;51.422;6.794;2023-03-01T10:31:27;15.30;;;8.37;;
8626;SDS011;4351;51.422;6.794;2023-03-01T10:34:07;12.07;;;8.17;;
8626;SDS011;4351;51.422;6.794;2023-03-01T10:36:39;11.87;;;7.97;;
8626;SDS011;4351;51.422;6.794;2023-03-01T10:39:12;15.60;;;8.87;;
8626;SDS011;4351;51.422;6.794;2023-03-01T10:41:54;12.10;;;8.20;;
8626;SDS011;4351;51.422;6.794;2023-03-01T10:44:38;13.90;;;8.23;;
8626;SDS011;4351;51.422;6.794;2023-03-01T10:47:13;15.37;;;8.30;;
8626;SDS011;4351;51.422;6.794;2023-03-01T10:49:56;14.27;;;8.50;;
8626;SDS011;4351;51.422;6.794;2023-03-01T10:52:29;12.27;;;8.93;;
8626;SDS011;4351;51.422;6.794;2023-03-01T10:54:59;16.23;;;8.17;;
8626;SDS011;4351;51.422;6.794;2023-03-01T10:57:32;10.80;;;7.33;;
8626;SDS011;4351;51.422;6.794;2023-03-01T11:03:09;10.30;;;7.33;;
8626;SDS011;4351;51.422;6.794;2023-03-01T11:05:50;12.10;;;7.67;;
8626;SDS011;4351;51.422;6.794;2023-03-01T11:08:34;9.93;;;7.27;;
8626;SDS011;4351;51.422;6.794;2023-03-01T11:11:13;11.47;;;7.87;;
8626;SDS011;4351;51.422;6.794;2023-03-01T11:13:47;13.77;;;7.30;;
8626;SDS011;4351;51.422;6.794;2023-03-01T11:16:23;13.10;;;7.70;;
8626;SDS011;4351;51.422;6.794;2023-03-01T11:19:00;11.60;;;8.03;;
8626;SDS011;4351;51.422;6.794;2023-03-01T11:21:42;14.17;;;7.97;;
8626;SDS011;4351;51.422;6.794;2023-03-01T11:24:16;11.03;;;7.57;;
8626;SDS011;4351;51.422;6.794;2023-03-01T11:26:48;9.20;;;7.00;;
8626;SDS011;4351;51.422;6.794;2023-03-01T11:29:21;12.33;;;7.40;;
8626;SDS011;4351;51.422;6.794;2023-03-01T11:32:06;12.87;;;7.50;;
8626;SDS011;4351;51.422;6.794;2023-03-01T11:34:38;12.60;;;7.80;;
8626;SDS011;4351;51.422;6.794;2023-03-01T11:37:13;11.67;;;7.30;;
8626;SDS011;4351;51.422;6.794;2023-03-01T11:39:54;11.30;;;6.90;;
8626;SDS011;4351;51.422;6.794;2023-03-01T11:42:29;10.80;;;7.07;;
8626;SDS011;4351;51.422;6.794;2023-03-01T11:45:10;10.80;;;7.07;;
8626;SDS011;4351;51.422;6.794;2023-03-01T11:47:43;13.53;;;7.90;;
8626;SDS011;4351;51.422;6.794;2023-03-01T11:50:28;9.23;;;6.57;;
8626;SDS011;4351;51.422;6.794;2023-03-01T11:56:06;9.47;;;6.73;;
8626;SDS011;4351;51.422;6.794;2023-03-01T11:58:59;10.10;;;6.60;;
8626;SDS011;4351;51.422;6.794;2023-03-01T12:01:45;11.20;;;7.20;;
8626;SDS011;4351;51.422;6.794;2023-03-01T12:04:30;9.37;;;6.73;;
8626;SDS011;4351;51.422;6.794;2023-03-01T12:07:22;9.90;;;6.60;;
8626;SDS011;4351;51.422;6.794;2023-03-01T12:10:01;9.93;;;7.30;;
8626;SDS011;4351;51.422;6.794;2023-03-01T12:12:51;12.83;;;7.37;;
8626;SDS011;4351;51.422;6.794;2023-03-01T12:15:39;10.63;;;6.30;;
8626;SDS011;4351;51.422;6.794;2023-03-01T12:21:29;10.50;;;6.50;;
8626;SDS011;4351;51.422;6.794;2023-03-01T12:24:07;8.70;;;6.30;;
8626;SDS011;4351;51.422;6.794;2023-03-01T12:26:52;10.20;;;6.13;;
8626;SDS011;4351;51.422;6.794;2023-03-01T12:29:32;8.63;;;6.17;;
8626;SDS011;4351;51.422;6.794;2023-03-01T12:32:15;11.67;;;6.53;;
8626;SDS011;4351;51.422;6.794;2023-03-01T12:35:01;10.70;;;5.97;;
8626;SDS011;4351;51.422;6.794;2023-03-01T12:37:44;10.77;;;6.17;;
8626;SDS011;4351;51.422;6.794;2023-03-01T12:40:23;10.37;;;6.57;;
8626;SDS011;4351;51.422;6.794;2023-03-01T12:43:17;9.47;;;6.57;;
8626;SDS011;4351;51.422;6.794;2023-03-01T12:48:50;12.50;;;7.43;;
8626;SDS011;4351;51.422;6.794;2023-03-01T12:51:28;9.07;;;7.00;;
8626;SDS011;4351;51.422;6.794;2023-03-01T12:54:01;10.63;;;7.20;;
8626;SDS011;4351;51.422;6.794;2023-03-01T12:56:35;11.77;;;7.40;;
8626;SDS011;4351;51.422;6.794;2023-03-01T12:59:07;9.83;;;6.93;;
8626;SDS011;4351;51.422;6.794;2023-03-01T13:01:45;12.57;;;6.60;;
8626;SDS011;4351;51.422;6.794;2023-03-01T13:04:25;13.47;;;6.50;;
8626;SDS011;4351;51.422;6.794;2023-03-01T13:07:13;10.40;;;7.27;;
8626;SDS011;4351;51.422;6.794;2023-03-01T13:09:48;10.20;;;6.63;;
8626;SDS011;4351;51.422;6.794;2023-03-01T13:15:25;12.63;;;7.27;;
8626;SDS011;4351;51.422;6.794;2023-03-01T13:17:56;9.73;;;6.97;;
8626;SDS011;4351;51.422;6.794;2023-03-01T13:20:27;12.27;;;7.00;;
8626;SDS011;4351;51.422;6.794;2023-03-01T13:23:00;10.27;;;6.30;;
8626;SDS011;4351;51.422;6.794;2023-03-01T13:25:31;9.40;;;6.80;;
8626;SDS011;4351;51.422;6.794;2023-03-01T13:34:51;12.40;;;7.07;;
8626;SDS011;4351;51.422;6.794;2023-03-01T13:37:31;11.13;;;7.67;;
8626;SDS011;4351;51.422;6.794;2023-03-01T13:45:56;9.97;;;6.70;;
8626;SDS011;4351;51.422;6.794;2023-03-01T13:48:26;11.70;;;7.27;;
8626;SDS011;4351;51.422;6.794;2023-03-01T13:50:57;9.17;;;6.60;;
8626;SDS011;4351;51.422;6.794;2023-03-01T13:53:28;9.10;;;6.77;;
8626;SDS011;4351;51.422;6.794;2023-03-01T13:56:01;11.83;;;7.20;;
8626;SDS011;4351;51.422;6.794;2023-03-01T13:58:43;10.30;;;6.80;;
8626;SDS011;4351;51.422;6.794;2023-03-01T14:01:20;9.27;;;6.87;;
8626;SDS011;4351;51.422;6.794;2023-03-01T14:03:50;13.50;;;7.10;;
8626;SDS011;4351;51.422;6.794;2023-03-01T14:06:21;9.60;;;6.50;;
8626;SDS011;4351;51.422;6.794;2023-03-01T14:08:59;9.93;;;7.10;;
8626;SDS011;4351;51.422;6.794;2023-03-01T14:11:35;12.70;;;7.23;;
8626;SDS011;4351;51.422;6.794;2023-03-01T14:14:33;11.30;;;7.17;;
8626;SDS011;4351;51.422;6.794;2023-03-01T14:20:12;13.27;;;7.30;;
8626;SDS011;4351;51.422;6.794;2023-03-01T14:22:47;12.63;;;7.43;;
8626;SDS011;4351;51.422;6.794;2023-03-01T14:25:19;11.83;;;7.40;;
8626;SDS011;4351;51.422;6.794;2023-03-01T14:27:51;17.57;;;7.60;;
8626;SDS011;4351;51.422;6.794;2023-03-01T14:30:24;8.40;;;6.30;;
8626;SDS011;4351;51.422;6.794;2023-03-01T14:32:54;13.17;;;7.80;;
8626;SDS011;4351;51.422;6.794;2023-03-01T14:35:24;12.23;;;7.23;;
8626;SDS011;4351;51.422;6.794;2023-03-01T14:37:55;13.23;;;7.70;;
8626;SDS011;4351;51.422;6.794;2023-03-01T14:40:25;11.80;;;7.43;;
8626;SDS011;4351;51.422;6.794;2023-03-01T14:42:55;12.30;;;7.83;;
8626;SDS011;4351;51.422;6.794;2023-03-01T14:45:26;14.07;;;7.87;;
8626;SDS011;4351;51.422;6.794;2023-03-01T14:47:58;11.43;;;7.70;;
8626;SDS011;4351;51.422;6.794;2023-03-01T14:50:28;12.97;;;8.00;;
8626;SDS011;4351;51.422;6.794;2023-03-01T14:53:00;12.20;;;7.63;;
8626;SDS011;4351;51.422;6.794;2023-03-01T14:55:31;11.00;;;8.13;;
8626;SDS011;4351;51.422;6.794;2023-03-01T14:58:03;14.73;;;8.27;;
8626;SDS011;4351;51.422;6.794;2023-03-01T15:00:33;13.70;;;8.37;;
8626;SDS011;4351;51.422;6.794;2023-03-01T15:03:11;12.33;;;7.80;;
8626;SDS011;4351;51.422;6.794;2023-03-01T15:05:42;14.00;;;8.23;;
8626;SDS011;4351;51.422;6.794;2023-03-01T15:08:17;13.80;;;7.67;;
8626;SDS011;4351;51.422;6.794;2023-03-01T15:11:17;13.80;;;8.20;;
8626;SDS011;4351;51.422;6.794;2023-03-01T15:17:40;14.20;;;8.83;;
8626;SDS011;4351;51.422;6.794;2023-03-01T15:20:28;11.67;;;8.00;;
8626;SDS011;4351;51.422;6.794;2023-03-01T15:23:01;13.23;;;8.30;;
8626;SDS011;4351;51.422;6.794;2023-03-01T15:25:32;14.57;;;8.13;;
8626;SDS011;4351;51.422;6.794;2023-03-01T15:28:01;11.17;;;7.63;;
8626;SDS011;4351;51.422;6.794;2023-03-01T15:30:32;10.77;;;7.43;;
8626;SDS011;4351;51.422;6.794;2023-03-01T15:33:17;13.10;;;7.77;;
8626;SDS011;4351;51.422;6.794;2023-03-01T15:35:57;10.07;;;7.43;;
8626;SDS011;4351;51.422;6.794;2023-03-01T15:38:34;13.90;;;8.40;;
8626;SDS011;4351;51.422;6.794;2023-03-01T15:41:21;10.83;;;7.43;;
8626;SDS011;4351;51.422;6.794;2023-03-01T15:43:52;11.67;;;7.07;;
8626;SDS011;4351;51.422;6.794;2023-03-01T15:46:23;11.20;;;7.40;;
8626;SDS011;4351;51.422;6.794;2023-03-01T15:48:54;13.17;;;7.83;;
8626;SDS011;4351;51.422;6.794;2023-03-01T15:51:34;13.77;;;7.77;;
8626;SDS011;4351;51.422;6.794;2023-03-01T15:54:05;12.10;;;7.97;;
8626;SDS011;4351;51.422;6.794;2023-03-01T15:56:47;13.43;;;7.87;;
8626;SDS011;4351;51.422;6.794;2023-03-01T15:59:15;13.40;;;8.33;;
8626;SDS011;4351;51.422;6.794;2023-03-01T16:01:43;12.30;;;7.80;;
8626;SDS011;4351;51.422;6.794;2023-03-01T16:04:12;12.10;;;7.47;;